Time;durP1;ratioP1;P1;durP2;ratioP2;P2;SDS_P1;SDS_P2;PMS_P1;PMS_P2;Temp;Humidity;BMP_temperature;BMP_pressure;BME280_temperature;BME280_humidity;BME280_pressure;Samples;Min_cycle;Max_cycle;Signal;HPM_P1;HPM_P2
2022/10/05 00:02:20;;;;;;;8.30;5.60;;;;;;;7.01;100.00;100236.63;6282683;22;20210;-80
2022/10/05 00:04:50;;;;;;;5.47;4.90;;;;;;;7.06;100.00;100239.56;6252232;22;20709;-80
2022/10/05 00:07:19;;;;;;;6.60;5.27;;;;;;;6.98;100.00;100243.16;6279233;22;20212;-81
2022/10/05 00:09:53;;;;;;;6.70;5.30;;;;;;;6.87;100.00;100238.25;6252759;22;20250;-82
2022/10/05 00:12:21;;;;;;;6.63;5.50;;;;;;;6.86;100.00;100241.94;6283513;22;20212;-81
2022/10/05 00:14:50;;;;;;;6.03;5.13;;;;;;;6.83;100.00;100233.47;6282159;22;20207;-81
2022/10/05 00:17:20;;;;;;;6.37;5.13;;;;;;;6.83;100.00;100244.13;6254681;22;20659;-81
2022/10/05 00:19:50;;;;;;;6.23;5.00;;;;;;;6.77;100.00;100244.84;6252735;22;20212;-81
2022/10/05 00:22:22;;;;;;;5.43;4.87;;;;;;;6.75;100.00;100247.72;6250138;22;20208;-80
2022/10/05 00:24:58;;;;;;;5.53;4.47;;;;;;;6.82;100.00;100245.13;6249523;22;20204;-80
2022/10/05 00:27:35;;;;;;;6.20;4.53;;;;;;;6.77;100.00;100237.69;6275741;22;20241;-81
2022/10/05 00:30:13;;;;;;;4.87;3.87;;;;;;;6.71;100.00;100245.59;6223543;22;20218;-80
2022/10/05 00:32:41;;;;;;;5.57;3.70;;;;;;;6.69;100.00;100227.09;6275777;22;20229;-80
2022/10/05 00:35:08;;;;;;;5.13;3.77;;;;;;;6.71;100.00;100242.91;6275782;22;20644;-81
2022/10/05 00:37:35;;;;;;;4.57;4.17;;;;;;;6.66;100.00;100239.97;6249309;22;20204;-80
2022/10/05 00:40:03;;;;;;;4.40;3.80;;;;;;;6.59;100.00;100235.34;6275172;22;20238;-79
2022/10/05 00:42:49;;;;;;;5.27;4.10;;;;;;;6.57;100.00;100237.38;6248350;22;20200;-81
2022/10/05 00:45:28;;;;;;;4.80;3.87;;;;;;;6.50;100.00;100231.09;6248938;22;20276;-81
2022/10/05 00:48:04;;;;;;;4.67;3.73;;;;;;;6.48;100.00;100229.63;6204920;23;20205;-81
2022/10/05 00:51:12;;;;;;;5.33;4.30;;;;;;;6.49;100.00;100220.63;6242374;23;20208;-80
2022/10/05 00:53:58;;;;;;;4.67;3.83;;;;;;;6.46;100.00;100220.97;6151414;23;20237;-81
2022/10/05 00:56:47;;;;;;;4.33;3.93;;;;;;;6.47;100.00;100219.97;6188354;23;20283;-80
2022/10/05 00:59:16;;;;;;;5.07;4.10;;;;;;;6.47;100.00;100215.50;6244375;23;20549;-79
2022/10/05 01:01:54;;;;;;;5.13;4.10;;;;;;;6.50;100.00;100214.28;6218235;23;20204;-81
2022/10/05 01:04:33;;;;;;;7.00;4.00;;;;;;;6.50;100.00;100215.13;6222269;23;20215;-81
2022/10/05 01:07:21;;;;;;;5.13;3.93;;;;;;;6.52;100.00;100215.78;6222476;23;20214;-81
2022/10/05 01:09:55;;;;;;;5.07;3.90;;;;;;;6.50;100.00;100220.44;6221245;23;20215;-81
2022/10/05 01:12:28;;;;;;;5.90;4.00;;;;;;;6.48;100.00;100211.81;6219938;23;20223;-81
2022/10/05 01:15:08;;;;;;;5.53;4.07;;;;;;;6.39;100.00;100215.53;6220408;23;20219;-81
2022/10/05 01:17:48;;;;;;;3.80;3.43;;;;;;;6.37;100.00;100209.56;6194747;23;20212;-80
2022/10/05 01:20:33;;;;;;;5.57;3.63;;;;;;;6.39;100.00;100212.88;6219728;23;20204;-81
2022/10/05 01:23:02;;;;;;;4.53;3.60;;;;;;;6.37;100.00;100214.06;6245469;23;20227;-80
2022/10/05 01:25:52;;;;;;;8.03;3.77;;;;;;;6.34;100.00;100212.59;6217132;23;20212;-80
2022/10/05 01:28:55;;;;;;;5.20;3.50;;;;;;;6.32;100.00;100208.44;6245760;23;20204;-81
2022/10/05 01:31:29;;;;;;;5.43;3.40;;;;;;;6.29;100.00;100206.16;6236005;23;20669;-81
2022/10/05 01:34:02;;;;;;;5.20;3.80;;;;;;;6.24;100.00;100201.38;6219760;23;20204;-81
2022/10/05 01:37:00;;;;;;;4.70;3.70;;;;;;;6.30;100.00;100205.97;6246473;23;20213;-80
2022/10/05 01:39:53;;;;;;;6.63;4.03;;;;;;;6.26;100.00;100207.31;6204245;23;20212;-80
2022/10/05 01:42:35;;;;;;;4.00;3.40;;;;;;;6.18;100.00;100199.41;6204463;23;20256;-81
2022/10/05 01:45:24;;;;;;;4.27;3.77;;;;;;;6.17;100.00;100185.28;6218467;23;20232;-81
2022/10/05 01:48:13;;;;;;;4.00;3.47;;;;;;;6.17;100.00;100193.25;6231184;23;20219;-80
2022/10/05 01:50:49;;;;;;;4.50;3.40;;;;;;;6.16;100.00;100190.75;6220976;23;20223;-80
2022/10/05 01:53:18;;;;;;;4.23;3.70;;;;;;;6.18;100.00;100186.94;6221440;23;20552;-82
2022/10/05 01:55:54;;;;;;;3.67;3.20;;;;;;;6.23;100.00;100182.91;6247611;23;20204;-80
2022/10/05 01:58:54;;;;;;;5.63;3.70;;;;;;;6.23;100.00;100180.25;6195452;23;20232;-80
2022/10/05 02:01:35;;;;;;;3.83;3.43;;;;;;;6.10;100.00;100176.38;6242280;23;20209;-80
2022/10/05 02:04:06;;;;;;;5.83;3.87;;;;;;;6.02;100.00;100179.06;6220626;23;20204;-80
2022/10/05 02:06:39;;;;;;;6.30;3.57;;;;;;;6.03;100.00;100186.03;6221285;23;20541;-81
2022/10/05 02:09:26;;;;;;;4.07;3.70;;;;;;;6.02;100.00;100176.41;6195777;23;20209;-80
2022/10/05 02:12:01;;;;;;;4.07;3.60;;;;;;;5.98;100.00;100171.59;6206694;23;20211;-80
2022/10/05 02:14:36;;;;;;;4.50;3.37;;;;;;;5.99;100.00;100167.94;6220718;23;20228;-81
2022/10/05 02:17:07;;;;;;;3.50;3.20;;;;;;;5.99;100.00;100170.63;6222061;23;20262;-81
2022/10/05 02:19:40;;;;;;;5.10;2.63;;;;;;;5.97;100.00;100165.47;6188728;23;20252;-80
2022/10/05 02:22:15;;;;;;;5.40;3.43;;;;;;;5.95;100.00;100164.81;6202280;23;20275;-81
2022/10/05 02:24:47;;;;;;;5.57;2.90;;;;;;;6.00;100.00;100158.97;6200283;23;20204;-80
2022/10/05 02:27:18;;;;;;;4.67;3.13;;;;;;;5.99;100.00;100159.97;6222071;23;20205;-79
2022/10/05 02:29:46;;;;;;;3.57;3.13;;;;;;;5.96;100.00;100158.50;6221942;23;20215;-79
2022/10/05 02:32:18;;;;;;;4.83;3.13;;;;;;;6.06;100.00;100155.63;6246051;23;20263;-79
2022/10/05 02:34:45;;;;;;;3.70;2.87;;;;;;;6.04;100.00;100153.13;6248222;23;20215;-79
2022/10/05 02:37:53;;;;;;;3.73;3.20;;;;;;;6.00;100.00;100151.00;6200080;23;20281;-79
2022/10/05 02:40:42;;;;;;;3.37;3.07;;;;;;;6.03;100.00;100147.97;6198689;23;20651;-79
2022/10/05 02:43:11;;;;;;;4.07;3.10;;;;;;;5.95;100.00;100151.53;6251055;23;20247;-78
2022/10/05 02:45:50;;;;;;;3.77;3.37;;;;;;;5.89;100.00;100146.06;6250821;23;20204;-81
2022/10/05 02:48:35;;;;;;;4.37;3.37;;;;;;;5.92;100.00;100151.88;6248596;23;20201;-81
2022/10/05 02:51:16;;;;;;;4.67;3.07;;;;;;;5.95;100.00;100148.03;6198129;23;20657;-80
2022/10/05 02:54:19;;;;;;;3.43;3.10;;;;;;;5.92;100.00;100151.88;6221808;23;20687;-80
2022/10/05 02:57:09;;;;;;;4.27;3.33;;;;;;;5.90;100.00;100145.91;6182405;23;20236;-81
2022/10/05 02:59:46;;;;;;;3.37;2.80;;;;;;;5.90;100.00;100142.41;6166264;23;20658;-81
2022/10/05 03:02:30;;;;;;;3.73;2.80;;;;;;;5.84;100.00;100143.09;6218656;23;20217;-81
2022/10/05 03:05:38;;;;;;;4.23;3.03;;;;;;;5.79;100.00;100140.94;6194021;23;20209;-81
2022/10/05 03:08:20;;;;;;;4.17;3.57;;;;;;;5.73;100.00;100129.22;6104507;23;20257;-81
2022/10/05 03:11:11;;;;;;;4.73;3.03;;;;;;;5.79;100.00;100132.97;6216399;23;20198;-81
2022/10/05 03:13:40;;;;;;;3.80;3.33;;;;;;;5.81;100.00;100127.50;6219533;23;20205;-81
2022/10/05 03:16:33;;;;;;;4.00;3.07;;;;;;;5.79;100.00;100127.66;6214958;23;20209;-80
2022/10/05 03:19:22;;;;;;;4.27;3.13;;;;;;;5.82;100.00;100130.00;6191987;23;20220;-82
2022/10/05 03:22:01;;;;;;;3.80;3.40;;;;;;;5.67;100.00;100127.25;6205027;23;20518;-82
2022/10/05 03:24:42;;;;;;;4.27;2.90;;;;;;;5.69;100.00;100141.19;6190694;23;20203;-83
2022/10/05 03:27:37;;;;;;;5.40;3.33;;;;;;;5.69;100.00;100130.53;6180115;23;20210;-82
2022/10/05 03:30:10;;;;;;;5.37;3.40;;;;;;;5.70;100.00;100132.22;6227545;23;20209;-82
2022/10/05 03:32:49;;;;;;;4.43;3.03;;;;;;;5.65;100.00;100126.59;6179121;23;20516;-82
2022/10/05 03:35:22;;;;;;;3.40;3.10;;;;;;;5.64;100.00;100129.44;6227944;23;20239;-81
2022/10/05 03:37:58;;;;;;;3.73;3.07;;;;;;;5.68;100.00;100131.56;6203411;23;20241;-82
2022/10/05 03:40:33;;;;;;;3.53;3.10;;;;;;;5.60;100.00;100131.59;6228021;23;20201;-83
2022/10/05 03:43:33;;;;;;;4.30;3.00;;;;;;;5.60;100.00;100123.63;6202887;23;20231;-82
2022/10/05 03:46:13;;;;;;;4.50;2.90;;;;;;;5.64;100.00;100129.44;6227317;23;20296;-82
2022/10/05 03:49:06;;;;;;;3.63;2.90;;;;;;;5.60;100.00;100131.59;6201219;23;20197;-81
2022/10/05 03:51:39;;;;;;;4.00;2.70;;;;;;;5.57;100.00;100125.81;6174878;23;20264;-81
2022/10/05 03:54:20;;;;;;;4.43;3.03;;;;;;;5.55;100.00;100125.97;6170774;23;20244;-80
2022/10/05 03:56:52;;;;;;;4.40;3.23;;;;;;;5.57;100.00;100118.66;6229612;23;20260;-80
2022/10/05 03:59:29;;;;;;;5.80;3.50;;;;;;;5.59;100.00;100114.03;6220552;23;20208;-80
2022/10/05 04:02:22;;;;;;;3.90;2.90;;;;;;;5.61;100.00;100122.63;6196700;23;20205;-80
2022/10/05 04:05:01;;;;;;;3.87;2.67;;;;;;;5.56;100.00;100111.69;6247579;23;20208;-80
2022/10/05 04:07:37;;;;;;;3.53;3.00;;;;;;;5.54;100.00;100103.09;6221147;23;20573;-80
2022/10/05 04:10:11;;;;;;;3.83;2.77;;;;;;;5.50;100.00;100111.59;6219979;23;20208;-80
2022/10/05 04:12:42;;;;;;;4.77;3.07;;;;;;;5.53;100.00;100105.91;6221491;23;20254;-80
2022/10/05 04:15:22;;;;;;;3.40;2.63;;;;;;;5.49;100.00;100102.78;6248144;23;20673;-80
2022/10/05 04:17:56;;;;;;;3.13;2.70;;;;;;;5.47;100.00;100107.44;6196304;23;20206;-81
2022/10/05 04:20:34;;;;;;;3.37;2.87;;;;;;;5.49;100.00;100109.94;6245381;23;20201;-80
2022/10/05 04:23:17;;;;;;;4.80;2.80;;;;;;;5.51;100.00;100115.88;6221516;23;20208;-80
2022/10/05 04:25:56;;;;;;;3.27;2.90;;;;;;;5.43;100.00;100108.78;6246505;23;20216;-80
2022/10/05 04:28:43;;;;;;;4.10;3.20;;;;;;;5.50;100.00;100111.59;6194351;23;20628;-80
2022/10/05 04:31:35;;;;;;;4.57;3.10;;;;;;;5.48;100.00;100098.47;6195276;23;20228;-80
2022/10/05 04:34:41;;;;;;;5.50;4.27;;;;;;;5.51;100.00;100100.75;6195672;23;20208;-80
2022/10/05 04:37:16;;;;;;;19.37;14.77;;;;;;;5.54;100.00;100111.06;6219675;23;20205;-80
2022/10/05 04:39:52;;;;;;;7.13;4.60;;;;;;;5.55;100.00;100102.06;6220285;23;20199;-80
2022/10/05 04:42:24;;;;;;;5.40;3.40;;;;;;;5.57;100.00;100110.69;6226143;23;20608;-80
2022/10/05 04:45:01;;;;;;;5.60;3.17;;;;;;;5.65;100.00;100113.28;6174471;23;20235;-81
2022/10/05 04:47:41;;;;;;;4.70;3.53;;;;;;;5.64;100.00;100118.81;6191451;23;20220;-78
2022/10/05 04:50:14;;;;;;;4.07;3.17;;;;;;;5.61;100.00;100122.63;6240732;23;20542;-78
2022/10/05 04:53:07;;;;;;;3.73;2.70;;;;;;;5.52;100.00;100106.91;6216101;23;20279;-80
2022/10/05 04:55:45;;;;;;;5.27;2.87;;;;;;;5.55;100.00;100125.19;6216824;23;20215;-81
2022/10/05 04:58:56;;;;;;;3.40;2.83;;;;;;;5.55;100.00;100117.22;6187262;23;20289;-80
2022/10/05 05:01:46;;;;;;;4.43;3.20;;;;;;;5.53;100.00;100122.69;6140665;23;20212;-80
2022/10/05 05:04:35;;;;;;;4.27;3.00;;;;;;;5.51;100.00;100119.38;6161321;23;20240;-80
2022/10/05 05:07:32;;;;;;;3.10;2.80;;;;;;;5.53;100.00;100114.72;6212296;23;20276;-81
2022/10/05 05:10:21;;;;;;;3.97;3.00;;;;;;;5.56;100.00;100119.66;6212858;23;20273;-81
2022/10/05 05:13:06;;;;;;;3.77;3.43;;;;;;;5.59;100.00;100129.97;6212823;23;20248;-80
2022/10/05 05:15:39;;;;;;;3.60;3.00;;;;;;;5.61;100.00;100133.25;6187606;23;20205;-80
2022/10/05 05:18:21;;;;;;;3.10;2.80;;;;;;;5.62;100.00;100136.75;6187277;23;20280;-80
2022/10/05 05:21:00;;;;;;;3.23;2.87;;;;;;;5.60;100.00;100141.44;6212825;23;20205;-81
2022/10/05 05:23:30;;;;;;;3.23;2.90;;;;;;;5.72;100.00;100145.34;6213939;23;20239;-81
2022/10/05 05:26:18;;;;;;;4.37;3.27;;;;;;;5.70;100.00;100136.69;6212235;23;20312;-79
2022/10/05 05:29:29;;;;;;;5.43;3.07;;;;;;;5.75;100.00;100131.69;6186387;23;20229;-80
2022/10/05 05:32:07;;;;;;;6.50;3.87;;;;;;;5.83;100.00;100142.28;6188090;23;20189;-81
2022/10/05 05:34:50;;;;;;;7.03;3.87;;;;;;;5.90;100.00;100137.94;6162472;23;20544;-80
2022/10/05 05:37:28;;;;;;;7.07;3.90;;;;;;;5.96;100.00;100137.22;6162810;23;20214;-80
2022/10/05 05:40:02;;;;;;;6.50;4.40;;;;;;;5.93;100.00;100142.88;6212162;23;20213;-81
2022/10/05 05:42:41;;;;;;;6.63;3.80;;;;;;;6.08;100.00;100141.13;6162729;23;20661;-80
2022/10/05 05:45:16;;;;;;;4.83;3.60;;;;;;;6.18;100.00;100141.69;6212622;23;20208;-80
2022/10/05 05:47:50;;;;;;;3.70;3.40;;;;;;;6.23;100.00;100143.81;6164551;23;20672;-80
2022/10/05 05:50:29;;;;;;;3.43;2.87;;;;;;;6.43;100.00;100154.81;6165260;23;20580;-80
2022/10/05 05:53:00;;;;;;;3.87;3.00;;;;;;;6.45;100.00;100156.28;6214443;23;20213;-80
2022/10/05 05:55:39;;;;;;;8.60;3.13;;;;;;;6.64;100.00;100157.59;6213959;23;20563;-81
2022/10/05 05:58:15;;;;;;;5.87;2.93;;;;;;;6.81;100.00;100163.59;6164079;23;20284;-80
2022/10/05 06:01:05;;;;;;;4.27;2.93;;;;;;;6.91;100.00;100167.63;6214142;23;20286;-80
2022/10/05 06:03:41;;;;;;;4.20;2.90;;;;;;;7.06;100.00;100179.13;6189337;23;20206;-80
2022/10/05 06:06:11;;;;;;;3.10;2.67;;;;;;;7.21;100.00;100170.31;6212996;23;20208;-78
2022/10/05 06:08:44;;;;;;;4.50;2.90;;;;;;;7.34;100.00;100171.28;6162626;23;20201;-78
2022/10/05 06:11:41;;;;;;;6.60;3.03;;;;;;;7.51;100.00;100172.72;6213799;23;20205;-80
2022/10/05 06:14:31;;;;;;;3.37;3.00;;;;;;;7.68;100.00;100170.69;6187924;23;20232;-80
2022/10/05 06:17:02;;;;;;;4.67;3.00;;;;;;;7.79;100.00;100174.72;6163613;23;20229;-81
2022/10/05 06:19:31;;;;;;;4.77;3.50;;;;;;;7.93;100.00;100160.50;6164036;23;20243;-80
2022/10/05 06:22:30;;;;;;;5.67;5.03;;;;;;;8.09;100.00;100165.59;6189529;23;20275;-80
2022/10/05 06:25:12;;;;;;;4.47;4.07;;;;;;;8.28;100.00;100164.13;6093230;23;20650;-81
2022/10/05 06:28:08;;;;;;;4.57;3.20;;;;;;;8.49;100.00;100177.47;6213636;23;20666;-80
2022/10/05 06:31:01;;;;;;;5.67;3.30;;;;;;;8.63;100.00;100184.56;6192625;23;20281;-81
2022/10/05 06:33:39;;;;;;;4.53;3.30;;;;;;;8.79;100.00;100186.97;6166425;23;20216;-80
2022/10/05 06:36:09;;;;;;;6.17;3.17;;;;;;;8.97;100.00;100190.97;6190564;23;20248;-81
2022/10/05 06:38:46;;;;;;;4.67;3.20;;;;;;;9.09;100.00;100192.94;6218683;23;20202;-80
2022/10/05 06:41:22;;;;;;;3.70;2.70;;;;;;;9.23;100.00;100183.97;6182687;23;20227;-81
2022/10/05 06:44:21;;;;;;;4.27;3.07;;;;;;;9.45;100.00;100192.72;6220544;23;20683;-80
2022/10/05 06:47:22;;;;;;;6.27;3.23;;;;;;;9.66;100.00;100203.28;6195202;23;20201;-81
2022/10/05 06:50:24;;;;;;;3.73;3.03;;;;;;;9.83;100.00;100194.94;6220228;23;20213;-81
2022/10/05 06:53:26;;;;;;;4.90;3.17;;;;;;;9.95;100.00;100204.00;6189782;23;20202;-81
2022/10/05 06:56:01;;;;;;;3.67;3.30;;;;;;;10.06;100.00;100201.59;6191419;23;20206;-81
2022/10/05 06:58:42;;;;;;;4.93;3.33;;;;;;;10.09;100.00;100205.69;6222566;23;20196;-81
2022/10/05 07:01:21;;;;;;;6.13;3.70;;;;;;;10.18;100.00;100204.50;6248475;23;20634;-81
2022/10/05 07:04:15;;;;;;;5.23;3.20;;;;;;;10.33;100.00;100193.63;6249372;23;20660;-82
2022/10/05 07:07:01;;;;;;;3.37;3.07;;;;;;;10.52;100.00;100190.97;6199645;23;20587;-82
2022/10/05 07:09:43;;;;;;;3.93;2.80;;;;;;;10.72;100.00;100200.88;6221339;23;20218;-82
2022/10/05 07:12:10;;;;;;;5.07;3.00;;;;;;;10.79;100.00;100204.34;6195295;23;20275;-82
2022/10/05 07:15:07;;;;;;;3.23;2.90;;;;;;;10.87;100.00;100196.91;6219960;23;20258;-82
2022/10/05 07:17:43;;;;;;;6.73;3.33;;;;;;;11.00;100.00;100191.56;6219745;23;20283;-82
2022/10/05 07:20:16;;;;;;;3.80;3.30;;;;;;;11.17;100.00;100199.97;6244161;23;20204;-81
2022/10/05 07:22:50;;;;;;;5.07;3.20;;;;;;;11.24;100.00;100208.84;6194987;23;20211;-82
2022/10/05 07:25:27;;;;;;;4.37;3.40;;;;;;;11.35;100.00;100205.50;6195347;23;20236;-83
2022/10/05 07:28:33;;;;;;;4.43;3.20;;;;;;;11.48;100.00;100202.78;6219730;23;20228;-82
2022/10/05 07:31:06;;;;;;;5.10;3.30;;;;;;;11.57;100.00;100206.03;6244479;23;20506;-83
2022/10/05 07:33:44;;;;;;;6.93;3.37;;;;;;;11.65;100.00;100211.19;6246380;23;20669;-82
2022/10/05 07:39:30;;;;;;;4.70;3.23;;;;;;;11.87;100.00;100217.94;6219574;23;20212;-82
2022/10/05 07:42:39;;;;;;;4.17;3.20;;;;;;;12.05;100.00;100211.84;6245763;23;20216;-83
2022/10/05 07:45:38;;;;;;;4.73;3.37;;;;;;;12.08;100.00;100205.25;6244939;23;20200;-82
2022/10/05 07:48:16;;;;;;;5.87;3.27;;;;;;;12.12;100.00;100198.41;6216636;23;20209;-82
2022/10/05 07:51:02;;;;;;;4.00;3.10;;;;;;;12.27;100.00;100199.72;6190261;23;20204;-83
2022/10/05 07:53:36;;;;;;;7.03;3.20;;;;;;;12.51;100.00;100198.13;6215396;23;20275;-82
2022/10/05 07:56:12;;;;;;;6.03;3.53;;;;;;;12.62;100.00;100199.28;6191087;23;20208;-82
2022/10/05 07:58:45;;;;;;;6.17;3.43;;;;;;;12.80;100.00;100204.72;6209966;23;20228;-81
2022/10/05 08:01:18;;;;;;;5.10;3.37;;;;;;;12.90;100.00;100202.34;6177261;23;20219;-82
2022/10/05 08:03:59;;;;;;;5.50;3.67;;;;;;;13.07;100.00;100206.13;6193168;23;20205;-83
2022/10/05 08:06:59;;;;;;;6.00;3.80;;;;;;;13.18;100.00;100208.13;6192726;23;20496;-82
2022/10/05 08:09:48;;;;;;;7.30;3.80;;;;;;;13.51;100.00;100215.84;6216742;23;20216;-86
2022/10/05 08:12:38;;;;;;;4.63;3.83;;;;;;;13.73;100.00;100218.06;6242984;23;20719;-82
2022/10/05 08:15:13;;;;;;;4.83;3.33;;;;;;;13.89;99.09;100212.91;6243520;23;20206;-82
2022/10/05 08:17:59;;;;;;;5.93;3.70;;;;;;;14.05;94.97;100214.13;6243290;23;20260;-79
2022/10/05 08:20:31;;;;;;;3.40;3.10;;;;;;;14.19;95.37;100212.06;6215904;23;20301;-79
2022/10/05 08:23:18;;;;;;;5.13;3.83;;;;;;;14.31;95.20;100203.00;6216315;23;20282;-80
2022/10/05 08:26:08;;;;;;;4.77;3.50;;;;;;;14.36;92.05;100200.47;6212796;23;20526;-79
2022/10/05 08:28:45;;;;;;;3.90;3.50;;;;;;;14.42;93.70;100196.00;6242391;23;20209;-80
2022/10/05 08:31:28;;;;;;;3.80;3.07;;;;;;;14.40;92.90;100195.44;6217496;23;20249;-79
2022/10/05 08:34:29;;;;;;;4.97;3.30;;;;;;;14.43;91.75;100192.25;6242212;23;20269;-79
2022/10/05 08:37:11;;;;;;;4.03;3.30;;;;;;;14.36;92.99;100188.84;6240434;23;20207;-81
2022/10/05 08:39:40;;;;;;;5.37;3.20;;;;;;;14.26;97.86;100189.38;6241511;23;20211;-80
2022/10/05 08:42:27;;;;;;;4.40;3.30;;;;;;;14.22;99.14;100195.47;6242981;23;20211;-81
2022/10/05 08:45:13;;;;;;;4.80;3.17;;;;;;;14.27;97.00;100193.72;6216373;23;20286;-80
2022/10/05 08:48:00;;;;;;;4.47;3.30;;;;;;;14.42;94.26;100191.44;6216363;23;20266;-81
2022/10/05 08:50:59;;;;;;;4.27;3.60;;;;;;;14.54;91.51;100191.47;6216005;23;20715;-80
2022/10/05 08:54:03;;;;;;;3.87;3.57;;;;;;;14.76;92.25;100189.03;6217156;23;20286;-84
2022/10/05 08:56:41;;;;;;;4.17;3.20;;;;;;;14.92;91.41;100189.19;6240512;23;20206;-84
2022/10/05 08:59:39;;;;;;;5.13;3.40;;;;;;;15.08;87.42;100181.41;6214424;23;20209;-82
2022/10/05 09:02:18;;;;;;;6.03;3.33;;;;;;;15.27;85.88;100185.63;6240605;23;20240;-80
2022/10/05 09:05:00;;;;;;;4.40;3.23;;;;;;;15.49;84.15;100183.13;6214960;23;20208;-81
2022/10/05 09:08:03;;;;;;;4.10;3.10;;;;;;;15.73;82.89;100173.91;6241545;23;20519;-83
2022/10/05 09:11:27;;;;;;;3.97;3.37;;;;;;;15.86;80.08;100174.47;6215057;23;20206;-82
2022/10/05 09:14:12;;;;;;;3.30;3.00;;;;;;;16.27;77.72;100177.94;6150434;23;20215;-81
2022/10/05 09:16:48;;;;;;;5.07;3.17;;;;;;;16.57;76.61;100174.91;6150237;23;20601;-82
2022/10/05 09:19:37;;;;;;;4.27;3.20;;;;;;;16.76;74.00;100173.63;6211456;23;20209;-83
2022/10/05 09:22:13;;;;;;;5.13;3.00;;;;;;;17.14;72.72;100178.28;6190779;23;20239;-84
2022/10/05 09:24:48;;;;;;;5.83;2.90;;;;;;;17.46;70.01;100175.72;6219667;23;20287;-84
2022/10/05 09:27:16;;;;;;;6.13;3.07;;;;;;;17.70;68.94;100166.31;6227128;23;20213;-83
2022/10/05 09:30:20;;;;;;;4.53;2.80;;;;;;;18.02;68.22;100167.22;6191215;23;20830;-82
2022/10/05 09:33:17;;;;;;;4.30;2.67;;;;;;;18.36;65.16;100156.16;6241171;23;20192;-82
2022/10/05 09:36:02;;;;;;;6.77;2.93;;;;;;;18.69;64.01;100160.53;6243484;23;20189;-82
2022/10/05 09:38:42;;;;;;;4.70;2.90;;;;;;;18.99;62.92;100166.16;6242758;23;20254;-83
2022/10/05 09:41:26;;;;;;;4.60;2.50;;;;;;;19.37;61.27;100165.03;6242931;23;20287;-83
2022/10/05 09:44:22;;;;;;;4.60;2.53;;;;;;;19.53;60.41;100163.25;6243216;23;20678;-83
2022/10/05 09:47:18;;;;;;;4.13;2.87;;;;;;;19.82;59.60;100158.19;6242786;22;20224;-83
2022/10/05 09:50:06;;;;;;;4.37;3.30;;;;;;;19.95;57.82;100139.47;6216348;23;20212;-81
2022/10/05 09:52:49;;;;;;;7.97;3.40;;;;;;;20.05;56.93;100138.66;6226719;23;20205;-83
2022/10/05 09:55:30;;;;;;;6.50;2.53;;;;;;;20.24;56.69;100137.06;6216204;23;20214;-82
2022/10/05 09:58:48;;;;;;;6.23;2.93;;;;;;;20.34;56.36;100137.13;6242816;23;20261;-84
2022/10/05 10:01:29;;;;;;;2.90;2.50;;;;;;;20.54;56.45;100137.09;6090790;23;20220;-80
2022/10/05 10:04:42;;;;;;;4.33;2.53;;;;;;;20.61;55.79;100136.84;6218526;23;20211;-81
2022/10/05 10:07:43;;;;;;;2.90;2.50;;;;;;;20.84;55.80;100132.72;6216326;23;20216;-82
2022/10/05 10:10:57;;;;;;;4.43;2.90;;;;;;;21.04;54.83;100143.59;6200541;23;20234;-83
2022/10/05 10:14:01;;;;;;;4.03;2.73;;;;;;;21.07;54.83;100138.41;6222922;23;20217;-81
2022/10/05 10:16:42;;;;;;;5.20;2.53;;;;;;;21.38;54.65;100133.69;6203008;23;20204;-81
2022/10/05 10:19:39;;;;;;;4.03;2.43;;;;;;;21.73;53.19;100134.63;6218481;23;20210;-79
2022/10/05 10:22:15;;;;;;;3.23;2.60;;;;;;;21.82;52.75;100136.50;6225976;23;20679;-82
2022/10/05 10:24:53;;;;;;;4.33;2.73;;;;;;;22.10;51.83;100128.72;6218380;23;20234;-82
2022/10/05 10:27:53;;;;;;;3.90;2.57;;;;;;;22.32;51.19;100129.09;6245721;23;20266;-79
2022/10/05 10:30:58;;;;;;;3.50;2.47;;;;;;;22.72;50.88;100128.78;6213907;23;20222;-81
2022/10/05 10:33:53;;;;;;;3.33;2.50;;;;;;;22.77;49.66;100123.25;6218250;23;20803;-82
2022/10/05 10:36:37;;;;;;;3.50;2.72;;;;;;;22.67;50.16;100125.25;6217280;23;20258;-79
2022/10/05 10:39:44;;;;;;;3.80;2.60;;;;;;;22.32;51.16;100119.00;6244884;23;20216;-80
2022/10/05 10:42:17;;;;;;;2.30;2.10;;;;;;;22.42;51.95;100117.28;6244079;23;20230;-80
2022/10/05 10:45:04;;;;;;;5.57;2.80;;;;;;;22.31;52.46;100109.16;6244908;23;20209;-80
2022/10/05 10:47:38;;;;;;;3.97;2.40;;;;;;;22.42;52.25;100095.44;6218109;23;20512;-80
2022/10/05 10:50:24;;;;;;;3.90;2.53;;;;;;;22.45;51.96;100098.41;6243742;23;20597;-79
2022/10/05 10:53:18;;;;;;;4.40;2.43;;;;;;;22.51;51.82;100096.44;6244517;23;20267;-80
2022/10/05 10:56:22;;;;;;;2.83;2.53;;;;;;;22.53;51.52;100099.72;6244434;23;20224;-80
2022/10/05 10:59:22;;;;;;;3.95;2.50;;;;;;;22.61;52.14;100102.66;6244350;23;20230;-80
2022/10/05 11:02:31;;;;;;;2.78;2.58;;;;;;;22.74;50.67;100093.81;6244544;23;20281;-80
2022/10/05 11:05:23;;;;;;;2.67;2.30;;;;;;;22.88;50.81;100093.94;6230608;23;20208;-80
2022/10/05 11:08:21;;;;;;;2.90;2.30;;;;;;;22.92;50.83;100091.44;6244412;23;20284;-81
2022/10/05 11:11:18;;;;;;;3.42;2.65;;;;;;;23.04;49.82;100087.22;6243869;23;20207;-82
2022/10/05 11:13:51;;;;;;;3.25;2.40;;;;;;;22.80;50.46;100086.38;6244670;23;20283;-80
2022/10/05 11:16:17;;;;;;;2.42;2.25;;;;;;;22.94;50.90;100075.56;6243424;23;20206;-80
2022/10/05 11:19:03;;;;;;;4.00;2.47;;;;;;;22.96;49.92;100078.81;6244354;23;20713;-78
2022/10/05 11:21:39;;;;;;;3.25;2.00;;;;;;;22.90;49.54;100074.53;6244242;23;20208;-80
2022/10/05 11:24:50;;;;;;;4.50;2.50;;;;;;;23.08;49.69;100074.59;6217304;23;20209;-80
2022/10/05 11:27:24;;;;;;;3.00;2.47;;;;;;;23.17;50.52;100061.91;6243401;23;20615;-80
2022/10/05 11:30:13;;;;;;;3.33;2.58;;;;;;;23.24;50.14;100067.00;6192453;23;20607;-80
2022/10/05 11:33:17;;;;;;;2.85;2.50;;;;;;;23.49;49.96;100057.69;6243986;23;20205;-80
2022/10/05 11:36:02;;;;;;;3.20;2.53;;;;;;;23.50;48.55;100053.84;6244085;23;20260;-80
2022/10/05 11:39:06;;;;;;;3.83;2.40;;;;;;;23.45;48.76;100057.47;6217205;23;20201;-80
2022/10/05 11:42:05;;;;;;;5.43;2.60;;;;;;;23.41;49.39;100042.75;6243764;23;20208;-81
2022/10/05 11:44:50;;;;;;;4.40;2.58;;;;;;;23.45;49.93;100049.28;6203318;23;20279;-81
2022/10/05 11:47:28;;;;;;;2.47;2.28;;;;;;;23.39;50.23;100041.38;6202748;23;20211;-80
2022/10/05 11:50:19;;;;;;;4.43;2.33;;;;;;;23.38;49.38;100040.56;6217791;23;20233;-80
2022/10/05 11:53:31;;;;;;;6.10;2.50;;;;;;;23.45;50.09;100041.06;6242107;23;20206;-81
2022/10/05 11:56:39;;;;;;;3.80;2.60;;;;;;;23.46;49.51;100045.44;6244131;23;20244;-80
2022/10/05 11:59:43;;;;;;;3.75;2.58;;;;;;;23.38;50.04;100040.56;6170561;23;20213;-80
2022/10/05 12:02:19;;;;;;;2.40;2.20;;;;;;;23.61;49.65;100041.66;6243138;23;20212;-80
2022/10/05 12:05:00;;;;;;;3.55;2.33;;;;;;;23.60;48.88;100040.88;6217464;23;20531;-81
2022/10/05 12:07:46;;;;;;;3.00;2.35;;;;;;;23.71;49.26;100044.25;6244121;23;20180;-80
2022/10/05 12:10:23;;;;;;;2.47;2.28;;;;;;;23.73;49.15;100039.31;6243093;23;20209;-79
2022/10/05 12:13:01;;;;;;;2.35;2.25;;;;;;;23.94;48.59;100035.13;6243903;23;20204;-82
2022/10/05 12:15:35;;;;;;;3.47;2.25;;;;;;;23.77;48.31;100034.03;6243781;23;20212;-81
2022/10/05 12:18:07;;;;;;;3.17;2.17;;;;;;;23.91;47.95;100030.25;6216846;23;20206;-81
2022/10/05 12:20:42;;;;;;;3.28;2.40;;;;;;;24.07;47.71;100031.66;6243897;23;20201;-81
2022/10/05 12:23:27;;;;;;;3.38;2.10;;;;;;;24.19;48.33;100030.38;6216748;23;20553;-80
2022/10/05 12:26:02;;;;;;;3.08;2.20;;;;;;;24.33;48.34;100031.25;6216632;23;20212;-81
2022/10/05 12:28:37;;;;;;;3.45;1.83;;;;;;;24.27;47.66;100022.28;6241539;23;20228;-80
2022/10/05 12:31:34;;;;;;;3.67;2.50;;;;;;;24.31;46.78;100025.28;6243270;23;20258;-81
2022/10/05 12:34:11;;;;;;;4.00;2.35;;;;;;;24.47;46.86;100021.94;6216755;23;20211;-81
2022/10/05 12:36:44;;;;;;;2.58;1.98;;;;;;;24.61;46.48;100038.41;6242870;23;20669;-80
2022/10/05 12:39:36;;;;;;;2.40;2.15;;;;;;;24.66;46.00;100021.88;6219226;23;20205;-79
2022/10/05 12:42:42;;;;;;;2.28;1.98;;;;;;;24.76;45.89;100023.59;6242338;23;20673;-80
2022/10/05 12:45:13;;;;;;;2.78;2.10;;;;;;;24.80;45.81;100024.63;6240850;23;20208;-80